createdAt,value
2023-04-18T00:00:21.820Z,81.29
2023-04-18T00:05:47.292Z,81.30
2023-04-18T00:10:50.217Z,81.39
2023-04-18T00:15:54.219Z,81.56
2023-04-18T00:20:56.991Z,81.69
2023-04-18T00:26:00.012Z,81.68
2023-04-18T00:31:03.546Z,81.78
2023-04-18T00:36:06.627Z,81.93
2023-04-18T00:41:09.416Z,82.01
2023-04-18T00:46:12.175Z,82.41
2023-04-18T00:51:15.692Z,82.49
2023-04-18T00:56:19.340Z,82.66
2023-04-18T01:01:22.237Z,82.60
2023-04-18T01:06:27.528Z,82.41
2023-04-18T01:11:30.476Z,82.82
2023-04-18T01:16:34.658Z,82.82
2023-04-18T01:22:00.548Z,83.18
2023-04-18T01:27:03.485Z,82.96
2023-04-18T01:32:07.067Z,83.05
2023-04-18T01:37:09.781Z,82.97
2023-04-18T01:42:12.526Z,83.20
2023-04-18T01:47:15.251Z,83.41
2023-04-18T01:52:18.271Z,83.81
2023-04-18T01:57:21.114Z,83.71
2023-04-18T02:02:24.021Z,83.75
2023-04-18T02:07:26.997Z,83.89
2023-04-18T02:12:29.703Z,83.99
2023-04-18T02:17:32.425Z,84.31
2023-04-18T02:22:38.234Z,84.48
2023-04-18T02:27:41.262Z,84.36
2023-04-18T02:32:44.080Z,84.25
2023-04-18T02:37:46.908Z,84.07
2023-04-18T02:42:49.609Z,84.23
2023-04-18T02:47:55.856Z,84.53
2023-04-18T02:53:00.157Z,84.46
2023-04-18T02:58:03.330Z,84.60
2023-04-18T03:03:06.227Z,84.39
2023-04-18T03:08:09.268Z,84.52
2023-04-18T03:13:12.154Z,84.72
2023-04-18T03:18:14.915Z,84.77
2023-04-18T03:23:17.661Z,85.03
2023-04-18T03:28:20.473Z,85.11
2023-04-18T03:33:23.957Z,84.78
2023-04-18T03:38:26.782Z,84.75
2023-04-18T03:43:29.528Z,85.07
2023-04-18T03:48:35.856Z,85.08
2023-04-18T03:53:38.653Z,84.92
2023-04-18T03:58:41.372Z,84.97
2023-04-18T04:03:44.278Z,84.76
2023-04-18T04:08:47.124Z,84.83
2023-04-18T04:13:49.955Z,85.20
2023-04-18T04:18:52.753Z,85.09
2023-04-18T04:23:55.479Z,85.21
2023-04-18T04:28:58.389Z,85.11
2023-04-18T04:34:01.784Z,85.13
2023-04-18T04:39:05.378Z,85.19
2023-04-18T04:44:10.362Z,85.39
2023-04-18T04:49:13.109Z,85.97
2023-04-18T04:54:16.302Z,85.86
2023-04-18T04:59:19.618Z,85.75
2023-04-18T05:04:22.495Z,86.24
2023-04-18T05:09:26.180Z,86.58
2023-04-18T05:14:28.893Z,86.46
2023-04-18T05:19:31.590Z,86.19
2023-04-18T05:24:34.258Z,85.86
2023-04-18T05:29:36.920Z,85.86
2023-04-18T05:34:39.646Z,85.87
2023-04-18T05:39:42.484Z,86.06
2023-04-18T05:44:45.162Z,86.22
2023-04-18T05:49:47.868Z,86.02
2023-04-18T05:54:51.181Z,85.48
2023-04-18T05:59:54.113Z,85.44
2023-04-18T06:04:57.564Z,85.06
2023-04-18T06:10:00.545Z,84.90
2023-04-18T06:15:05.278Z,84.82
2023-04-18T06:20:10.056Z,84.85
2023-04-18T06:25:12.871Z,84.93
2023-04-18T06:30:15.799Z,84.99
2023-04-18T06:35:18.752Z,84.72
2023-04-18T06:40:21.538Z,84.62
2023-04-18T06:45:24.616Z,84.75
2023-04-18T06:50:30.664Z,83.97
2023-04-18T06:55:33.943Z,83.31
2023-04-18T07:00:42.079Z,81.95
2023-04-18T07:05:50.967Z,80.80
2023-04-18T07:10:53.840Z,79.40
2023-04-18T07:15:56.835Z,77.89
2023-04-18T07:20:59.534Z,76.25
2023-04-18T07:26:03.178Z,75.08
2023-04-18T07:31:09.112Z,73.14
2023-04-18T07:36:12.317Z,72.94
2023-04-18T07:41:15.717Z,72.64
2023-04-18T07:46:19.011Z,71.19
2023-04-18T07:51:22.203Z,70.68
2023-04-18T07:56:25.976Z,69.82
2023-04-18T08:01:28.737Z,68.78
2023-04-18T08:06:31.535Z,68.60
2023-04-18T08:11:35.186Z,67.77
2023-04-18T08:16:39.536Z,66.85
2023-04-18T08:21:42.217Z,66.35
2023-04-18T08:26:45.114Z,65.52
2023-04-18T08:31:50.525Z,63.83
2023-04-18T08:37:04.674Z,62.05
2023-04-18T08:42:24.531Z,61.49
2023-04-18T08:47:31.402Z,60.49
2023-04-18T08:52:36.173Z,59.53
2023-04-18T08:57:39.879Z,58.86
2023-04-18T09:02:43.118Z,57.46
2023-04-18T09:07:50.464Z,56.16
2023-04-18T09:12:53.223Z,55.53
2023-04-18T09:17:58.821Z,54.70
2023-04-18T09:23:04.385Z,52.89
2023-04-18T09:28:24.037Z,51.99
2023-04-18T09:33:35.293Z,51.30
2023-04-18T09:38:41.235Z,50.91
2023-04-18T09:43:48.207Z,49.98
2023-04-18T09:48:54.129Z,48.98
2023-04-18T09:53:59.733Z,48.43
2023-04-18T09:59:10.310Z,46.94
2023-04-18T10:04:17.621Z,45.92
2023-04-18T10:09:21.225Z,45.31
2023-04-18T10:14:25.039Z,44.68
2023-04-18T10:19:30.044Z,43.17
2023-04-18T10:24:54.266Z,43.05
2023-04-18T10:29:57.107Z,42.29
2023-04-18T10:35:00.700Z,41.67
2023-04-18T10:40:06.976Z,40.92
2023-04-18T10:45:19.843Z,41.56
2023-04-18T10:50:24.057Z,42.18
2023-04-18T10:55:29.373Z,42.53
2023-04-18T11:00:32.631Z,41.65
2023-04-18T11:05:35.683Z,40.36
2023-04-18T11:10:38.929Z,40.06
2023-04-18T11:15:41.764Z,39.32
2023-04-18T11:20:49.703Z,38.97
2023-04-18T11:25:56.476Z,38.97
2023-04-18T11:31:02.904Z,38.32
2023-04-18T11:36:06.965Z,37.83
2023-04-18T11:41:16.410Z,38.66
2023-04-18T11:46:19.253Z,39.02
2023-04-18T11:51:35.869Z,38.84
2023-04-18T11:56:48.433Z,39.09
2023-04-18T12:02:15.499Z,39.31
2023-04-18T12:07:42.469Z,39.32
2023-04-18T12:12:50.242Z,39.66
2023-04-18T12:17:58.496Z,40.09
2023-04-18T12:23:02.443Z,40.04
2023-04-18T12:28:15.830Z,40.15
2023-04-18T12:33:19.553Z,40.14
2023-04-18T12:38:23.718Z,40.39
2023-04-18T12:43:29.733Z,41.53
2023-04-18T12:48:32.530Z,41.71
2023-04-18T12:53:35.239Z,41.97
2023-04-18T12:58:37.991Z,41.87
2023-04-18T13:03:41.329Z,41.75
2023-04-18T13:08:45.270Z,41.22
2023-04-18T13:13:48.001Z,40.33
2023-04-18T13:18:51.015Z,39.36
2023-04-18T13:23:53.938Z,39.29
2023-04-18T13:28:57.783Z,39.70
2023-04-18T13:34:00.718Z,41.16
2023-04-18T13:39:05.205Z,41.88
2023-04-18T13:44:08.724Z,42.59
2023-04-18T13:49:11.589Z,43.64
2023-04-18T13:54:16.504Z,44.71
2023-04-18T13:59:19.587Z,45.46
2023-04-18T14:04:22.893Z,46.69
2023-04-18T14:09:26.929Z,47.48
2023-04-18T14:14:29.973Z,48.17
2023-04-18T14:19:33.185Z,48.71
2023-04-18T14:24:36.526Z,49.56
2023-04-18T14:29:39.328Z,49.77
2023-04-18T14:34:42.852Z,48.99
2023-04-18T14:39:46.213Z,48.64
2023-04-18T14:44:48.931Z,49.21
2023-04-18T14:49:51.737Z,49.64
2023-04-18T14:54:54.469Z,50.17
2023-04-18T14:59:57.300Z,50.68
2023-04-18T15:05:00.534Z,50.50
2023-04-18T15:10:05.017Z,50.80
2023-04-18T15:15:08.159Z,51.40
2023-04-18T15:20:11.310Z,51.40
2023-04-18T15:25:16.528Z,51.65
2023-04-18T15:30:20.025Z,52.16
2023-04-18T15:35:23.094Z,52.80
2023-04-18T15:40:26.298Z,53.62
2023-04-18T15:45:29.025Z,54.13
2023-04-18T15:50:33.534Z,54.75
2023-04-18T15:55:36.613Z,55.28
2023-04-18T16:00:40.011Z,55.71
2023-04-18T16:05:43.032Z,55.80
2023-04-18T16:10:46.245Z,56.36
2023-04-18T16:15:49.093Z,56.86
2023-04-18T16:20:52.211Z,57.08
2023-04-18T16:25:59.745Z,57.34
2023-04-18T16:31:02.470Z,57.84
2023-04-18T16:36:09.019Z,58.35
2023-04-18T16:41:12.246Z,58.95
2023-04-18T16:46:15.608Z,59.69
2023-04-18T16:51:18.557Z,60.12
2023-04-18T16:56:21.355Z,60.72
2023-04-18T17:01:24.184Z,61.13
2023-04-18T17:06:27.333Z,61.88
2023-04-18T17:11:32.261Z,62.28
2023-04-18T17:16:41.474Z,62.77
2023-04-18T17:21:45.461Z,62.70
2023-04-18T17:26:49.026Z,62.61
2023-04-18T17:31:54.001Z,62.60
2023-04-18T17:36:56.963Z,62.78
2023-04-18T17:42:01.076Z,63.13
2023-04-18T17:47:03.814Z,63.33
2023-04-18T17:52:06.721Z,63.35
2023-04-18T17:57:09.560Z,63.78
2023-04-18T18:02:12.357Z,63.80
2023-04-18T18:07:15.679Z,64.09
2023-04-18T18:12:20.845Z,64.47
2023-04-18T18:17:23.813Z,64.69
2023-04-18T18:22:27.006Z,64.91
2023-04-18T18:27:29.962Z,65.12
2023-04-18T18:32:32.915Z,65.37
2023-04-18T18:37:35.752Z,65.66
2023-04-18T18:42:39.031Z,65.74
2023-04-18T18:47:42.051Z,66.00
2023-04-18T18:52:45.186Z,65.99
2023-04-18T18:57:47.889Z,66.11
2023-04-18T19:02:50.730Z,66.28
2023-04-18T19:07:53.500Z,65.87
2023-04-18T19:12:56.594Z,65.75
2023-04-18T19:18:00.587Z,65.57
2023-04-18T19:23:04.505Z,65.28
2023-04-18T19:28:07.286Z,64.78
2023-04-18T19:33:10.554Z,64.90
2023-04-18T19:38:17.208Z,64.39
2023-04-18T19:43:20.044Z,64.11
2023-04-18T19:48:22.779Z,64.10
2023-04-18T19:53:26.324Z,63.26
2023-04-18T19:58:34.171Z,61.99
2023-04-18T20:03:37.079Z,61.26
2023-04-18T20:08:47.403Z,60.42
2023-04-18T20:13:52.272Z,60.14
2023-04-18T20:18:57.228Z,61.48
2023-04-18T20:24:00.027Z,62.74
2023-04-18T20:29:04.321Z,63.12
2023-04-18T20:34:07.428Z,63.47
2023-04-18T20:39:10.239Z,63.62
2023-04-18T20:44:13.842Z,64.13
2023-04-18T20:49:16.836Z,64.42
2023-04-18T20:54:19.794Z,64.52
2023-04-18T20:59:22.527Z,64.73
2023-04-18T21:04:25.379Z,64.86
2023-04-18T21:09:28.212Z,65.29
2023-04-18T21:14:31.490Z,65.14
2023-04-18T21:19:34.735Z,65.07
2023-04-18T21:24:39.034Z,64.87
2023-04-18T21:29:42.359Z,64.72
2023-04-18T21:34:45.025Z,64.89
2023-04-18T21:40:09.571Z,65.13
2023-04-18T21:45:12.418Z,65.07
2023-04-18T21:50:16.103Z,65.04
2023-04-18T21:55:18.911Z,65.43
2023-04-18T22:00:21.767Z,65.35
2023-04-18T22:05:26.353Z,65.58
2023-04-18T22:10:29.106Z,65.72
2023-04-18T22:15:32.408Z,65.93
2023-04-18T22:20:38.973Z,66.47
2023-04-18T22:25:41.911Z,66.62
2023-04-18T22:30:45.947Z,66.74
2023-04-18T22:35:49.096Z,66.42
2023-04-18T22:40:51.925Z,66.37
2023-04-18T22:45:54.700Z,66.68
2023-04-18T22:50:57.432Z,66.62
2023-04-18T22:56:00.152Z,66.90
2023-04-18T23:01:03.156Z,66.97
2023-04-18T23:06:08.097Z,67.37
2023-04-18T23:11:11.221Z,67.63
2023-04-18T23:16:14.020Z,68.18
2023-04-18T23:21:17.482Z,68.55
2023-04-18T23:26:21.054Z,68.43
2023-04-18T23:31:23.912Z,68.55
2023-04-18T23:36:27.337Z,68.70
2023-04-18T23:41:30.085Z,68.92
2023-04-18T23:46:34.384Z,68.86
2023-04-18T23:51:39.108Z,68.98
2023-04-18T23:56:41.793Z,69.40
